sensor_id;sensor_type;location;lat;lon;timestamp;temperature;humidity
22167;DHT22;11249;52.468;13.776;2022-08-14T00:01:10;20.60;99.90
22167;DHT22;11249;52.468;13.776;2022-08-14T00:03:38;20.60;99.90
22167;DHT22;11249;52.468;13.776;2022-08-14T00:06:07;20.60;99.90
22167;DHT22;11249;52.468;13.776;2022-08-14T00:08:55;20.50;99.90
22167;DHT22;11249;52.468;13.776;2022-08-14T00:11:25;20.50;99.90
22167;DHT22;11249;52.468;13.776;2022-08-14T00:14:00;20.50;99.90
22167;DHT22;11249;52.468;13.776;2022-08-14T00:16:28;20.40;99.90
22167;DHT22;11249;52.468;13.776;2022-08-14T00:19:11;20.40;99.90
22167;DHT22;11249;52.468;13.776;2022-08-14T00:21:50;20.40;99.90
22167;DHT22;11249;52.468;13.776;2022-08-14T00:24:23;20.40;99.90
22167;DHT22;11249;52.468;13.776;2022-08-14T00:26:57;20.30;99.90
22167;DHT22;11249;52.468;13.776;2022-08-14T00:29:31;20.30;99.90
22167;DHT22;11249;52.468;13.776;2022-08-14T00:32:08;20.30;99.90
22167;DHT22;11249;52.468;13.776;2022-08-14T00:35:03;20.30;99.90
22167;DHT22;11249;52.468;13.776;2022-08-14T00:37:39;20.30;99.90
22167;DHT22;11249;52.468;13.776;2022-08-14T00:40:15;20.30;99.90
22167;DHT22;11249;52.468;13.776;2022-08-14T00:42:59;20.20;99.90
22167;DHT22;11249;52.468;13.776;2022-08-14T00:45:34;20.20;99.90
22167;DHT22;11249;52.468;13.776;2022-08-14T00:48:08;20.10;99.90
22167;DHT22;11249;52.468;13.776;2022-08-14T00:51:07;20.10;99.90
22167;DHT22;11249;52.468;13.776;2022-08-14T00:53:35;20.10;99.90
22167;DHT22;11249;52.468;13.776;2022-08-14T00:56:10;20.10;99.90
22167;DHT22;11249;52.468;13.776;2022-08-14T00:58:41;20.10;99.90
22167;DHT22;11249;52.468;13.776;2022-08-14T01:01:14;20.00;99.90
22167;DHT22;11249;52.468;13.776;2022-08-14T01:03:49;20.00;99.90
22167;DHT22;11249;52.468;13.776;2022-08-14T01:06:25;20.00;99.90
22167;DHT22;11249;52.468;13.776;2022-08-14T01:08:55;20.00;99.90
22167;DHT22;11249;52.468;13.776;2022-08-14T01:11:31;20.00;99.90
22167;DHT22;11249;52.468;13.776;2022-08-14T01:14:10;20.00;99.90
22167;DHT22;11249;52.468;13.776;2022-08-14T01:16:53;20.00;99.90
22167;DHT22;11249;52.468;13.776;2022-08-14T01:19:26;20.00;99.90
22167;DHT22;11249;52.468;13.776;2022-08-14T01:22:19;20.00;99.90
22167;DHT22;11249;52.468;13.776;2022-08-14T01:24:55;20.00;99.90
22167;DHT22;11249;52.468;13.776;2022-08-14T01:27:23;20.10;99.90
22167;DHT22;11249;52.468;13.776;2022-08-14T01:30:11;20.10;99.90
22167;DHT22;11249;52.468;13.776;2022-08-14T01:32:42;20.10;99.90
22167;DHT22;11249;52.468;13.776;2022-08-14T01:35:17;20.10;99.90
22167;DHT22;11249;52.468;13.776;2022-08-14T01:38:13;20.10;99.90
22167;DHT22;11249;52.468;13.776;2022-08-14T01:40:51;20.10;99.90
22167;DHT22;11249;52.468;13.776;2022-08-14T01:43:20;20.20;99.90
22167;DHT22;11249;52.468;13.776;2022-08-14T01:45:53;20.20;99.90
22167;DHT22;11249;52.468;13.776;2022-08-14T01:48:33;20.10;99.90
22167;DHT22;11249;52.468;13.776;2022-08-14T01:51:04;20.10;99.90
22167;DHT22;11249;52.468;13.776;2022-08-14T01:53:54;20.10;99.90
22167;DHT22;11249;52.468;13.776;2022-08-14T01:56:24;20.10;99.90
22167;DHT22;11249;52.468;13.776;2022-08-14T02:01:45;20.10;99.90
22167;DHT22;11249;52.468;13.776;2022-08-14T02:04:27;20.10;99.90
22167;DHT22;11249;52.468;13.776;2022-08-14T02:07:16;20.10;99.90
22167;DHT22;11249;52.468;13.776;2022-08-14T02:10:11;20.20;99.90
22167;DHT22;11249;52.468;13.776;2022-08-14T02:12:45;20.10;99.90
22167;DHT22;11249;52.468;13.776;2022-08-14T02:15:23;20.10;99.90
22167;DHT22;11249;52.468;13.776;2022-08-14T02:17:50;20.10;99.90
22167;DHT22;11249;52.468;13.776;2022-08-14T02:20:24;20.10;99.90
22167;DHT22;11249;52.468;13.776;2022-08-14T02:22:51;20.20;99.90
22167;DHT22;11249;52.468;13.776;2022-08-14T02:25:20;20.20;99.90
22167;DHT22;11249;52.468;13.776;2022-08-14T02:27:56;20.20;99.90
22167;DHT22;11249;52.468;13.776;2022-08-14T02:30:43;20.20;99.90
22167;DHT22;11249;52.468;13.776;2022-08-14T02:33:24;20.20;99.90
22167;DHT22;11249;52.468;13.776;2022-08-14T02:36:07;20.20;99.90
22167;DHT22;11249;52.468;13.776;2022-08-14T02:39:09;20.20;99.90
22167;DHT22;11249;52.468;13.776;2022-08-14T02:41:40;20.20;99.90
22167;DHT22;11249;52.468;13.776;2022-08-14T02:44:24;20.20;99.90
22167;DHT22;11249;52.468;13.776;2022-08-14T02:47:06;20.20;99.90
22167;DHT22;11249;52.468;13.776;2022-08-14T02:49:45;20.20;99.90
22167;DHT22;11249;52.468;13.776;2022-08-14T02:52:22;20.20;99.90
22167;DHT22;11249;52.468;13.776;2022-08-14T02:55:15;20.20;99.90
22167;DHT22;11249;52.468;13.776;2022-08-14T02:57:48;20.20;99.90
22167;DHT22;11249;52.468;13.776;2022-08-14T03:00:30;20.20;99.90
22167;DHT22;11249;52.468;13.776;2022-08-14T03:02:58;20.20;99.90
22167;DHT22;11249;52.468;13.776;2022-08-14T03:05:34;20.10;99.90
22167;DHT22;11249;52.468;13.776;2022-08-14T03:08:11;20.10;99.90
22167;DHT22;11249;52.468;13.776;2022-08-14T03:10:46;20.20;99.90
22167;DHT22;11249;52.468;13.776;2022-08-14T03:13:15;20.20;99.90
22167;DHT22;11249;52.468;13.776;2022-08-14T03:15:50;20.20;99.90
22167;DHT22;11249;52.468;13.776;2022-08-14T03:18:23;20.20;99.90
22167;DHT22;11249;52.468;13.776;2022-08-14T03:21:00;20.20;99.90
22167;DHT22;11249;52.468;13.776;2022-08-14T03:23:35;20.20;99.90
22167;DHT22;11249;52.468;13.776;2022-08-14T03:26:10;20.20;99.90
22167;DHT22;11249;52.468;13.776;2022-08-14T03:28:46;20.20;99.90
22167;DHT22;11249;52.468;13.776;2022-08-14T03:31:20;20.20;99.90
22167;DHT22;11249;52.468;13.776;2022-08-14T03:33:59;20.20;99.90
22167;DHT22;11249;52.468;13.776;2022-08-14T03:37:02;20.20;99.90
22167;DHT22;11249;52.468;13.776;2022-08-14T03:39:49;20.20;99.90
22167;DHT22;11249;52.468;13.776;2022-08-14T03:42:26;20.20;99.90
22167;DHT22;11249;52.468;13.776;2022-08-14T03:45:03;20.20;99.90
22167;DHT22;11249;52.468;13.776;2022-08-14T03:47:58;20.20;99.90
22167;DHT22;11249;52.468;13.776;2022-08-14T03:50:28;20.20;99.90
22167;DHT22;11249;52.468;13.776;2022-08-14T03:53:02;20.10;99.90
22167;DHT22;11249;52.468;13.776;2022-08-14T03:55:29;20.10;99.90
22167;DHT22;11249;52.468;13.776;2022-08-14T03:58:05;20.10;99.90
22167;DHT22;11249;52.468;13.776;2022-08-14T04:00:34;20.10;99.90
22167;DHT22;11249;52.468;13.776;2022-08-14T04:03:11;20.10;99.90
22167;DHT22;11249;52.468;13.776;2022-08-14T04:05:49;20.10;99.90
22167;DHT22;11249;52.468;13.776;2022-08-14T04:08:17;20.00;99.90
22167;DHT22;11249;52.468;13.776;2022-08-14T04:10:58;20.10;99.90
22167;DHT22;11249;52.468;13.776;2022-08-14T04:13:27;20.10;99.90
22167;DHT22;11249;52.468;13.776;2022-08-14T04:16:09;20.10;99.90
22167;DHT22;11249;52.468;13.776;2022-08-14T04:18:43;20.10;99.90
22167;DHT22;11249;52.468;13.776;2022-08-14T04:21:19;20.10;99.90
22167;DHT22;11249;52.468;13.776;2022-08-14T04:23:53;20.10;99.90
22167;DHT22;11249;52.468;13.776;2022-08-14T04:26:29;20.20;99.90
22167;DHT22;11249;52.468;13.776;2022-08-14T04:29:09;20.20;99.90
22167;DHT22;11249;52.468;13.776;2022-08-14T04:31:44;20.20;99.90
22167;DHT22;11249;52.468;13.776;2022-08-14T04:34:38;20.20;99.90
22167;DHT22;11249;52.468;13.776;2022-08-14T04:37:22;20.20;99.90
22167;DHT22;11249;52.468;13.776;2022-08-14T04:40:19;20.20;99.90
22167;DHT22;11249;52.468;13.776;2022-08-14T04:43:11;20.30;99.90
22167;DHT22;11249;52.468;13.776;2022-08-14T04:46:10;20.30;99.90
22167;DHT22;11249;52.468;13.776;2022-08-14T04:49:03;20.30;99.90
22167;DHT22;11249;52.468;13.776;2022-08-14T04:51:33;20.30;99.90
22167;DHT22;11249;52.468;13.776;2022-08-14T04:54:22;20.40;99.90
22167;DHT22;11249;52.468;13.776;2022-08-14T04:56:53;20.40;99.90
22167;DHT22;11249;52.468;13.776;2022-08-14T04:59:26;20.50;99.90
22167;DHT22;11249;52.468;13.776;2022-08-14T05:01:55;20.50;99.90
22167;DHT22;11249;52.468;13.776;2022-08-14T05:04:23;20.60;99.90
22167;DHT22;11249;52.468;13.776;2022-08-14T05:06:56;20.60;99.90
22167;DHT22;11249;52.468;13.776;2022-08-14T05:09:31;20.70;99.90
22167;DHT22;11249;52.468;13.776;2022-08-14T05:11:58;20.80;99.90
22167;DHT22;11249;52.468;13.776;2022-08-14T05:14:45;20.80;99.90
22167;DHT22;11249;52.468;13.776;2022-08-14T05:17:22;20.90;99.90
22167;DHT22;11249;52.468;13.776;2022-08-14T05:20:17;21.00;99.90
22167;DHT22;11249;52.468;13.776;2022-08-14T05:23:04;21.10;99.90
22167;DHT22;11249;52.468;13.776;2022-08-14T05:25:40;21.20;99.90
22167;DHT22;11249;52.468;13.776;2022-08-14T05:30:41;21.30;99.90
22167;DHT22;11249;52.468;13.776;2022-08-14T05:33:17;21.40;99.90
22167;DHT22;11249;52.468;13.776;2022-08-14T05:36:01;21.40;99.90
22167;DHT22;11249;52.468;13.776;2022-08-14T05:38:44;21.40;99.90
22167;DHT22;11249;52.468;13.776;2022-08-14T05:41:19;21.40;99.90
22167;DHT22;11249;52.468;13.776;2022-08-14T05:43:47;21.50;99.90
22167;DHT22;11249;52.468;13.776;2022-08-14T05:46:17;21.50;99.90
22167;DHT22;11249;52.468;13.776;2022-08-14T05:48:53;21.50;99.90
22167;DHT22;11249;52.468;13.776;2022-08-14T05:51:23;21.50;99.90
22167;DHT22;11249;52.468;13.776;2022-08-14T05:53:50;21.50;99.90
22167;DHT22;11249;52.468;13.776;2022-08-14T05:56:35;21.60;99.90
22167;DHT22;11249;52.468;13.776;2022-08-14T05:59:09;21.50;99.90
22167;DHT22;11249;52.468;13.776;2022-08-14T06:01:36;21.50;99.90
22167;DHT22;11249;52.468;13.776;2022-08-14T06:04:12;21.60;99.90
22167;DHT22;11249;52.468;13.776;2022-08-14T06:06:41;21.70;99.90
22167;DHT22;11249;52.468;13.776;2022-08-14T06:09:14;21.70;99.90
22167;DHT22;11249;52.468;13.776;2022-08-14T06:11:48;21.80;99.90
22167;DHT22;11249;52.468;13.776;2022-08-14T06:14:23;21.90;99.90
22167;DHT22;11249;52.468;13.776;2022-08-14T06:16:52;22.00;99.90
22167;DHT22;11249;52.468;13.776;2022-08-14T06:19:25;22.00;99.90
22167;DHT22;11249;52.468;13.776;2022-08-14T06:21:52;22.10;99.90
22167;DHT22;11249;52.468;13.776;2022-08-14T06:24:25;22.10;99.90
22167;DHT22;11249;52.468;13.776;2022-08-14T06:27:02;22.20;99.90
22167;DHT22;11249;52.468;13.776;2022-08-14T06:29:36;22.20;99.90
22167;DHT22;11249;52.468;13.776;2022-08-14T06:32:09;22.30;99.90
22167;DHT22;11249;52.468;13.776;2022-08-14T06:34:56;22.30;99.90
22167;DHT22;11249;52.468;13.776;2022-08-14T06:37:47;22.30;99.90
22167;DHT22;11249;52.468;13.776;2022-08-14T06:40:23;22.50;99.90
22167;DHT22;11249;52.468;13.776;2022-08-14T06:43:05;22.50;99.90
22167;DHT22;11249;52.468;13.776;2022-08-14T06:45:34;22.60;99.90
22167;DHT22;11249;52.468;13.776;2022-08-14T06:48:18;22.60;99.90
22167;DHT22;11249;52.468;13.776;2022-08-14T06:50:47;22.70;99.90
22167;DHT22;11249;52.468;13.776;2022-08-14T06:53:23;22.70;99.90
22167;DHT22;11249;52.468;13.776;2022-08-14T06:55:54;22.80;99.90
22167;DHT22;11249;52.468;13.776;2022-08-14T06:58:29;22.90;99.90
22167;DHT22;11249;52.468;13.776;2022-08-14T07:01:02;23.00;99.90
22167;DHT22;11249;52.468;13.776;2022-08-14T07:03:53;23.00;99.90
22167;DHT22;11249;52.468;13.776;2022-08-14T07:06:51;23.10;99.90
22167;DHT22;11249;52.468;13.776;2022-08-14T07:09:24;23.20;99.90
22167;DHT22;11249;52.468;13.776;2022-08-14T07:12:16;23.30;99.90
22167;DHT22;11249;52.468;13.776;2022-08-14T07:15:04;23.30;99.90
22167;DHT22;11249;52.468;13.776;2022-08-14T07:17:48;23.40;99.90
22167;DHT22;11249;52.468;13.776;2022-08-14T07:20:17;23.50;99.90
22167;DHT22;11249;52.468;13.776;2022-08-14T07:23:01;23.60;99.90
22167;DHT22;11249;52.468;13.776;2022-08-14T07:25:46;23.70;99.90
22167;DHT22;11249;52.468;13.776;2022-08-14T07:28:25;23.80;99.90
22167;DHT22;11249;52.468;13.776;2022-08-14T07:31:01;23.90;99.90
22167;DHT22;11249;52.468;13.776;2022-08-14T07:33:40;24.00;99.90
22167;DHT22;11249;52.468;13.776;2022-08-14T07:36:17;24.10;99.90
22167;DHT22;11249;52.468;13.776;2022-08-14T07:38:58;24.20;99.90
22167;DHT22;11249;52.468;13.776;2022-08-14T07:41:39;24.30;99.90
22167;DHT22;11249;52.468;13.776;2022-08-14T07:44:14;24.40;99.90
22167;DHT22;11249;52.468;13.776;2022-08-14T07:46:58;24.50;99.90
22167;DHT22;11249;52.468;13.776;2022-08-14T07:49:33;24.60;99.90
22167;DHT22;11249;52.468;13.776;2022-08-14T07:52:03;24.70;99.90
22167;DHT22;11249;52.468;13.776;2022-08-14T07:54:30;24.90;99.90
22167;DHT22;11249;52.468;13.776;2022-08-14T07:57:04;25.00;99.90
22167;DHT22;11249;52.468;13.776;2022-08-14T07:59:39;25.00;99.90
22167;DHT22;11249;52.468;13.776;2022-08-14T08:02:16;25.10;99.90
22167;DHT22;11249;52.468;13.776;2022-08-14T08:04:51;25.10;99.90
22167;DHT22;11249;52.468;13.776;2022-08-14T08:07:29;25.20;99.90
22167;DHT22;11249;52.468;13.776;2022-08-14T08:09:59;25.30;99.90
22167;DHT22;11249;52.468;13.776;2022-08-14T08:12:28;25.40;99.90
22167;DHT22;11249;52.468;13.776;2022-08-14T08:15:02;25.60;99.90
22167;DHT22;11249;52.468;13.776;2022-08-14T08:17:36;25.70;99.90
22167;DHT22;11249;52.468;13.776;2022-08-14T08:20:06;25.90;99.90
22167;DHT22;11249;52.468;13.776;2022-08-14T08:22:47;25.90;99.90
22167;DHT22;11249;52.468;13.776;2022-08-14T08:25:22;26.00;99.90
22167;DHT22;11249;52.468;13.776;2022-08-14T08:28:20;26.10;99.90
22167;DHT22;11249;52.468;13.776;2022-08-14T08:31:00;26.20;99.90
22167;DHT22;11249;52.468;13.776;2022-08-14T08:33:34;26.40;99.90
22167;DHT22;11249;52.468;13.776;2022-08-14T08:36:09;26.50;99.90
22167;DHT22;11249;52.468;13.776;2022-08-14T08:38:49;26.70;99.90
22167;DHT22;11249;52.468;13.776;2022-08-14T08:44:18;26.90;99.90
22167;DHT22;11249;52.468;13.776;2022-08-14T08:46:58;27.00;99.90
22167;DHT22;11249;52.468;13.776;2022-08-14T08:49:41;27.10;99.90
22167;DHT22;11249;52.468;13.776;2022-08-14T08:52:28;27.20;99.90
22167;DHT22;11249;52.468;13.776;2022-08-14T08:55:02;27.30;99.90
22167;DHT22;11249;52.468;13.776;2022-08-14T08:57:33;27.40;99.90
22167;DHT22;11249;52.468;13.776;2022-08-14T09:00:12;27.40;99.90
22167;DHT22;11249;52.468;13.776;2022-08-14T09:02:56;27.50;99.90
22167;DHT22;11249;52.468;13.776;2022-08-14T09:05:24;27.60;99.90
22167;DHT22;11249;52.468;13.776;2022-08-14T09:08:13;27.60;99.90
22167;DHT22;11249;52.468;13.776;2022-08-14T09:10:57;27.60;99.90
22167;DHT22;11249;52.468;13.776;2022-08-14T09:13:53;27.60;99.90
22167;DHT22;11249;52.468;13.776;2022-08-14T09:16:23;27.60;99.90
22167;DHT22;11249;52.468;13.776;2022-08-14T09:19:01;27.70;99.90
22167;DHT22;11249;52.468;13.776;2022-08-14T09:21:29;27.80;99.90
22167;DHT22;11249;52.468;13.776;2022-08-14T09:24:08;28.00;99.90
22167;DHT22;11249;52.468;13.776;2022-08-14T09:26:58;28.10;99.90
22167;DHT22;11249;52.468;13.776;2022-08-14T09:29:32;28.30;99.90
22167;DHT22;11249;52.468;13.776;2022-08-14T09:32:02;28.30;99.90
22167;DHT22;11249;52.468;13.776;2022-08-14T09:39:00;28.50;99.90
22167;DHT22;11249;52.468;13.776;2022-08-14T09:42:01;28.60;99.90
22167;DHT22;11249;52.468;13.776;2022-08-14T09:45:15;28.80;99.90
22167;DHT22;11249;52.468;13.776;2022-08-14T09:47:50;28.90;99.90
22167;DHT22;11249;52.468;13.776;2022-08-14T09:53:00;29.10;99.90
22167;DHT22;11249;52.468;13.776;2022-08-14T09:55:44;29.20;99.90
22167;DHT22;11249;52.468;13.776;2022-08-14T09:58:19;29.10;99.90
22167;DHT22;11249;52.468;13.776;2022-08-14T10:00:55;29.20;99.90
22167;DHT22;11249;52.468;13.776;2022-08-14T10:03:35;29.30;99.90
22167;DHT22;11249;52.468;13.776;2022-08-14T10:06:13;29.50;99.90
22167;DHT22;11249;52.468;13.776;2022-08-14T10:09:04;29.50;99.90
22167;DHT22;11249;52.468;13.776;2022-08-14T10:11:38;29.40;99.90
22167;DHT22;11249;52.468;13.776;2022-08-14T10:14:18;29.60;99.90
22167;DHT22;11249;52.468;13.776;2022-08-14T10:17:01;29.40;99.90
22167;DHT22;11249;52.468;13.776;2022-08-14T10:19:46;29.30;99.90
22167;DHT22;11249;52.468;13.776;2022-08-14T10:22:24;29.50;99.90
22167;DHT22;11249;52.468;13.776;2022-08-14T10:25:16;29.40;99.90
22167;DHT22;11249;52.468;13.776;2022-08-14T10:27:56;29.40;99.90
22167;DHT22;11249;52.468;13.776;2022-08-14T10:30:32;29.30;99.90
22167;DHT22;11249;52.468;13.776;2022-08-14T10:33:09;29.30;99.90
22167;DHT22;11249;52.468;13.776;2022-08-14T10:35:43;29.40;99.90
22167;DHT22;11249;52.468;13.776;2022-08-14T10:38:32;29.60;99.90
22167;DHT22;11249;52.468;13.776;2022-08-14T10:41:13;29.50;99.90
22167;DHT22;11249;52.468;13.776;2022-08-14T10:44:17;29.60;99.90
22167;DHT22;11249;52.468;13.776;2022-08-14T10:46:52;30.20;99.90
22167;DHT22;11249;52.468;13.776;2022-08-14T10:49:59;30.60;99.90
22167;DHT22;11249;52.468;13.776;2022-08-14T10:52:29;30.90;99.90
22167;DHT22;11249;52.468;13.776;2022-08-14T10:55:14;30.90;99.90
22167;DHT22;11249;52.468;13.776;2022-08-14T10:57:54;31.20;99.90
22167;DHT22;11249;52.468;13.776;2022-08-14T11:00:31;31.50;99.90
22167;DHT22;11249;52.468;13.776;2022-08-14T11:03:02;31.70;99.90
22167;DHT22;11249;52.468;13.776;2022-08-14T11:06:09;31.90;99.90
22167;DHT22;11249;52.468;13.776;2022-08-14T11:08:42;31.90;99.90
22167;DHT22;11249;52.468;13.776;2022-08-14T11:11:11;31.80;99.90
22167;DHT22;11249;52.468;13.776;2022-08-14T11:13:41;32.10;99.90
22167;DHT22;11249;52.468;13.776;2022-08-14T11:16:16;32.50;99.90
22167;DHT22;11249;52.468;13.776;2022-08-14T11:18:54;32.80;99.90
22167;DHT22;11249;52.468;13.776;2022-08-14T11:21:28;33.20;99.90
22167;DHT22;11249;52.468;13.776;2022-08-14T11:24:00;33.40;99.90
22167;DHT22;11249;52.468;13.776;2022-08-14T11:26:53;33.60;99.90
22167;DHT22;11249;52.468;13.776;2022-08-14T11:29:21;33.60;99.90
22167;DHT22;11249;52.468;13.776;2022-08-14T11:32:01;33.40;99.90
22167;DHT22;11249;52.468;13.776;2022-08-14T11:34:51;33.50;99.90
22167;DHT22;11249;52.468;13.776;2022-08-14T11:37:25;33.30;99.90
22167;DHT22;11249;52.468;13.776;2022-08-14T11:40:15;32.50;99.90
22167;DHT22;11249;52.468;13.776;2022-08-14T11:42:55;32.50;99.90
22167;DHT22;11249;52.468;13.776;2022-08-14T11:45:29;32.80;99.90
22167;DHT22;11249;52.468;13.776;2022-08-14T11:48:21;33.30;99.90
22167;DHT22;11249;52.468;13.776;2022-08-14T11:51:15;33.30;99.90
22167;DHT22;11249;52.468;13.776;2022-08-14T11:54:10;33.00;99.90
22167;DHT22;11249;52.468;13.776;2022-08-14T11:57:00;32.80;99.90
22167;DHT22;11249;52.468;13.776;2022-08-14T11:59:34;33.50;99.90
22167;DHT22;11249;52.468;13.776;2022-08-14T12:02:14;33.20;99.90
22167;DHT22;11249;52.468;13.776;2022-08-14T12:05:08;33.20;99.90
22167;DHT22;11249;52.468;13.776;2022-08-14T12:07:47;33.50;99.90
22167;DHT22;11249;52.468;13.776;2022-08-14T12:10:20;34.10;99.90
22167;DHT22;11249;52.468;13.776;2022-08-14T12:13:13;34.40;98.50
22167;DHT22;11249;52.468;13.776;2022-08-14T12:15:45;34.90;97.50
22167;DHT22;11249;52.468;13.776;2022-08-14T12:18:31;35.40;96.90
22167;DHT22;11249;52.468;13.776;2022-08-14T12:23:46;35.90;93.00
22167;DHT22;11249;52.468;13.776;2022-08-14T12:26:20;36.40;92.40
22167;DHT22;11249;52.468;13.776;2022-08-14T12:31:39;36.50;91.90
22167;DHT22;11249;52.468;13.776;2022-08-14T12:34:30;36.70;92.00
22167;DHT22;11249;52.468;13.776;2022-08-14T12:37:12;37.10;90.80
22167;DHT22;11249;52.468;13.776;2022-08-14T12:39:45;37.50;90.50
22167;DHT22;11249;52.468;13.776;2022-08-14T12:42:12;37.20;90.30
22167;DHT22;11249;52.468;13.776;2022-08-14T12:45:02;36.90;90.80
22167;DHT22;11249;52.468;13.776;2022-08-14T12:47:30;35.70;90.40
22167;DHT22;11249;52.468;13.776;2022-08-14T12:50:04;35.80;90.50
22167;DHT22;11249;52.468;13.776;2022-08-14T12:52:37;36.10;90.00
22167;DHT22;11249;52.468;13.776;2022-08-14T12:55:35;36.20;90.10
22167;DHT22;11249;52.468;13.776;2022-08-14T12:58:27;36.90;88.20
22167;DHT22;11249;52.468;13.776;2022-08-14T13:03:49;37.90;87.40
22167;DHT22;11249;52.468;13.776;2022-08-14T13:06:24;38.00;85.20
22167;DHT22;11249;52.468;13.776;2022-08-14T13:08:53;37.90;83.50
22167;DHT22;11249;52.468;13.776;2022-08-14T13:11:33;36.80;85.20
22167;DHT22;11249;52.468;13.776;2022-08-14T13:14:06;37.20;84.30
22167;DHT22;11249;52.468;13.776;2022-08-14T13:16:44;36.10;83.00
22167;DHT22;11249;52.468;13.776;2022-08-14T13:19:16;36.30;82.70
22167;DHT22;11249;52.468;13.776;2022-08-14T13:21:54;35.90;81.40
22167;DHT22;11249;52.468;13.776;2022-08-14T13:24:37;36.90;81.70
22167;DHT22;11249;52.468;13.776;2022-08-14T13:27:11;37.60;79.30
22167;DHT22;11249;52.468;13.776;2022-08-14T13:29:40;36.70;77.30
22167;DHT22;11249;52.468;13.776;2022-08-14T13:32:15;36.90;78.90
22167;DHT22;11249;52.468;13.776;2022-08-14T13:34:46;37.60;76.60
22167;DHT22;11249;52.468;13.776;2022-08-14T13:37:26;37.80;74.80
22167;DHT22;11249;52.468;13.776;2022-08-14T13:39:54;37.10;75.90
22167;DHT22;11249;52.468;13.776;2022-08-14T13:42:29;37.10;74.00
22167;DHT22;11249;52.468;13.776;2022-08-14T13:44:59;36.30;76.00
22167;DHT22;11249;52.468;13.776;2022-08-14T13:47:32;35.70;74.50
22167;DHT22;11249;52.468;13.776;2022-08-14T13:50:12;36.20;75.60
22167;DHT22;11249;52.468;13.776;2022-08-14T13:52:48;37.20;73.90
22167;DHT22;11249;52.468;13.776;2022-08-14T13:55:29;37.20;73.90
22167;DHT22;11249;52.468;13.776;2022-08-14T13:58:02;36.70;74.60
22167;DHT22;11249;52.468;13.776;2022-08-14T14:00:55;36.50;73.20
22167;DHT22;11249;52.468;13.776;2022-08-14T14:03:23;37.40;74.10
22167;DHT22;11249;52.468;13.776;2022-08-14T14:05:59;38.00;72.50
22167;DHT22;11249;52.468;13.776;2022-08-14T14:08:27;37.90;71.40
22167;DHT22;11249;52.468;13.776;2022-08-14T14:11:15;37.70;71.60
22167;DHT22;11249;52.468;13.776;2022-08-14T14:13:53;38.00;71.00
22167;DHT22;11249;52.468;13.776;2022-08-14T14:16:26;38.30;72.20
22167;DHT22;11249;52.468;13.776;2022-08-14T14:18:57;38.20;71.90
22167;DHT22;11249;52.468;13.776;2022-08-14T14:21:36;37.10;72.50
22167;DHT22;11249;52.468;13.776;2022-08-14T14:24:06;36.50;72.10
22167;DHT22;11249;52.468;13.776;2022-08-14T14:26:33;37.10;73.50
22167;DHT22;11249;52.468;13.776;2022-08-14T14:29:08;37.10;74.00
22167;DHT22;11249;52.468;13.776;2022-08-14T14:31:46;36.60;74.80
22167;DHT22;11249;52.468;13.776;2022-08-14T14:34:16;37.50;73.00
22167;DHT22;11249;52.468;13.776;2022-08-14T14:36:57;38.30;72.00
22167;DHT22;11249;52.468;13.776;2022-08-14T14:39:32;38.70;73.30
22167;DHT22;11249;52.468;13.776;2022-08-14T14:42:26;38.90;72.40
22167;DHT22;11249;52.468;13.776;2022-08-14T14:45:05;39.20;72.70
22167;DHT22;11249;52.468;13.776;2022-08-14T14:47:49;38.70;73.30
22167;DHT22;11249;52.468;13.776;2022-08-14T14:50:25;39.60;71.90
22167;DHT22;11249;52.468;13.776;2022-08-14T14:52:54;38.90;71.30
22167;DHT22;11249;52.468;13.776;2022-08-14T14:55:40;38.70;71.10
22167;DHT22;11249;52.468;13.776;2022-08-14T14:58:35;38.60;71.00
22167;DHT22;11249;52.468;13.776;2022-08-14T15:01:12;39.10;70.90
22167;DHT22;11249;52.468;13.776;2022-08-14T15:03:41;39.50;71.10
22167;DHT22;11249;52.468;13.776;2022-08-14T15:06:18;39.90;71.00
22167;DHT22;11249;52.468;13.776;2022-08-14T15:08:56;39.80;71.10
22167;DHT22;11249;52.468;13.776;2022-08-14T15:11:25;39.30;70.30
22167;DHT22;11249;52.468;13.776;2022-08-14T15:13:59;39.00;71.00
22167;DHT22;11249;52.468;13.776;2022-08-14T15:16:46;38.50;71.60
22167;DHT22;11249;52.468;13.776;2022-08-14T15:19:24;38.90;71.20
22167;DHT22;11249;52.468;13.776;2022-08-14T15:21:52;39.30;70.90
22167;DHT22;11249;52.468;13.776;2022-08-14T15:24:19;39.10;70.50
22167;DHT22;11249;52.468;13.776;2022-08-14T15:26:53;38.50;70.80
22167;DHT22;11249;52.468;13.776;2022-08-14T15:29:28;38.20;70.40
22167;DHT22;11249;52.468;13.776;2022-08-14T15:32:02;37.40;70.90
22167;DHT22;11249;52.468;13.776;2022-08-14T15:34:40;37.10;72.10
22167;DHT22;11249;52.468;13.776;2022-08-14T15:37:21;37.20;72.10
22167;DHT22;11249;52.468;13.776;2022-08-14T15:39:49;37.70;72.20
22167;DHT22;11249;52.468;13.776;2022-08-14T15:42:19;37.60;72.70
22167;DHT22;11249;52.468;13.776;2022-08-14T15:44:55;37.80;72.70
22167;DHT22;11249;52.468;13.776;2022-08-14T15:47:30;36.40;74.80
22167;DHT22;11249;52.468;13.776;2022-08-14T15:49:59;36.10;76.20
22167;DHT22;11249;52.468;13.776;2022-08-14T15:52:34;36.50;77.10
22167;DHT22;11249;52.468;13.776;2022-08-14T15:55:06;36.60;76.90
22167;DHT22;11249;52.468;13.776;2022-08-14T15:57:41;36.40;77.60
22167;DHT22;11249;52.468;13.776;2022-08-14T16:00:28;36.70;78.00
22167;DHT22;11249;52.468;13.776;2022-08-14T16:03:21;36.50;78.00
22167;DHT22;11249;52.468;13.776;2022-08-14T16:06:01;36.20;77.90
22167;DHT22;11249;52.468;13.776;2022-08-14T16:08:41;36.20;78.70
22167;DHT22;11249;52.468;13.776;2022-08-14T16:11:09;36.40;78.20
22167;DHT22;11249;52.468;13.776;2022-08-14T16:13:44;36.50;78.50
22167;DHT22;11249;52.468;13.776;2022-08-14T16:16:18;36.90;78.60
22167;DHT22;11249;52.468;13.776;2022-08-14T16:19:12;37.10;78.80
22167;DHT22;11249;52.468;13.776;2022-08-14T16:21:50;37.00;79.50
22167;DHT22;11249;52.468;13.776;2022-08-14T16:24:40;36.30;79.60
22167;DHT22;11249;52.468;13.776;2022-08-14T16:27:30;35.80;81.60
22167;DHT22;11249;52.468;13.776;2022-08-14T16:30:10;36.10;80.90
22167;DHT22;11249;52.468;13.776;2022-08-14T16:32:55;36.10;81.10
22167;DHT22;11249;52.468;13.776;2022-08-14T16:35:30;36.30;80.90
22167;DHT22;11249;52.468;13.776;2022-08-14T16:38:25;36.60;81.00
22167;DHT22;11249;52.468;13.776;2022-08-14T16:41:19;36.70;81.00
22167;DHT22;11249;52.468;13.776;2022-08-14T16:44:05;36.10;80.40
22167;DHT22;11249;52.468;13.776;2022-08-14T16:46:48;35.00;81.60